SWA4007 KFAT-KLAS
Flight info
| Callsign | SWA4007 |
|---|---|
| Flight time | 0h 48m |
| Altitude | 29000 |
| Route | NTELL CABAB Q174 FLCHR COKTL4 |
| Aircraft | B737/M-SDE2E3FGHIRWXY/LB1 |
Departure
| Time | 2026-04-15 13:45 |
|---|---|
| Airport | Fresno Yosemite International Airport (KFAT) |
Arrival
| Time | 2026-04-15 14:33 |
|---|---|
| Airport | Harry Reid International Airport (KLAS) |
| Time | Latitude | Longitude | Altitude | Speed | Heading |
|---|---|---|---|---|---|
| 2026-04-15 13:28 | 36.77221 | -119.71837 | 334 ft | 0 kts | 192° |
| 2026-04-15 13:38 | 36.77237 | -119.71831 | 333 ft | 4 kts | 207° |
| 2026-04-15 13:38 | 36.77259 | -119.71813 | 335 ft | 4 kts | 219° |
| 2026-04-15 13:38 | 36.77278 | -119.71797 | 335 ft | 1 kts | 199° |
| 2026-04-15 13:39 | 36.77282 | -119.71795 | 334 ft | 0 kts | 199° |
| 2026-04-15 13:41 | 36.77272 | -119.71786 | 336 ft | 5 kts | 139° |
| 2026-04-15 13:41 | 36.77233 | -119.71726 | 338 ft | 13 kts | 125° |
| 2026-04-15 13:41 | 36.77210 | -119.71633 | 334 ft | 10 kts | 70° |
| 2026-04-15 13:41 | 36.77191 | -119.71539 | 333 ft | 14 kts | 124° |
| 2026-04-15 13:42 | 36.77122 | -119.71420 | 333 ft | 20 kts | 124° |
| 2026-04-15 13:42 | 36.77031 | -119.71260 | 330 ft | 25 kts | 126° |
| 2026-04-15 13:42 | 36.76930 | -119.71083 | 333 ft | 24 kts | 126° |
| 2026-04-15 13:42 | 36.76835 | -119.70918 | 334 ft | 23 kts | 126° |
| 2026-04-15 13:43 | 36.76768 | -119.70786 | 333 ft | 17 kts | 109° |
| 2026-04-15 13:43 | 36.76764 | -119.70629 | 335 ft | 19 kts | 87° |
| 2026-04-15 13:43 | 36.76779 | -119.70495 | 332 ft | 13 kts | 59° |
| 2026-04-15 13:43 | 36.76848 | -119.70410 | 337 ft | 15 kts | 37° |
| 2026-04-15 13:44 | 36.76914 | -119.70409 | 338 ft | 12 kts | 315° |
| 2026-04-15 13:44 | 36.77058 | -119.70655 | 335 ft | 71 kts | 306° |
| 2026-04-15 13:44 | 36.77481 | -119.71396 | 341 ft | 134 kts | 306° |
| 2026-04-15 13:44 | 36.78104 | -119.72447 | 684 ft | 156 kts | 311° |
| 2026-04-15 13:45 | 36.78853 | -119.73397 | 1513 ft | 152 kts | 313° |
| 2026-04-15 13:45 | 36.79594 | -119.74398 | 2138 ft | 164 kts | 311° |
| 2026-04-15 13:45 | 36.80375 | -119.75548 | 2670 ft | 182 kts | 310° |
| 2026-04-15 13:47 | 36.87927 | -119.85289 | 7128 ft | 260 kts | 342° |
| 2026-04-15 13:47 | 36.89744 | -119.85391 | 7965 ft | 268 kts | 12° |
| 2026-04-15 13:47 | 36.91447 | -119.84388 | 8898 ft | 275 kts | 38° |
| 2026-04-15 13:48 | 36.92674 | -119.82554 | 9949 ft | 279 kts | 62° |
| 2026-04-15 13:48 | 36.93420 | -119.80265 | 10651 ft | 295 kts | 70° |
| 2026-04-15 13:48 | 36.94127 | -119.77712 | 10882 ft | 326 kts | 70° |
| 2026-04-15 13:48 | 36.94893 | -119.74955 | 11208 ft | 350 kts | 70° |
| 2026-04-15 13:49 | 36.95733 | -119.72052 | 11942 ft | 359 kts | 69° |
| 2026-04-15 13:49 | 36.96621 | -119.69101 | 12811 ft | 364 kts | 68° |
| 2026-04-15 13:49 | 36.97542 | -119.66133 | 13711 ft | 370 kts | 68° |
| 2026-04-15 13:49 | 36.98501 | -119.63110 | 14532 ft | 376 kts | 67° |
| 2026-04-15 13:50 | 36.99486 | -119.60042 | 15380 ft | 382 kts | 67° |
| 2026-04-15 13:50 | 37.00490 | -119.56937 | 16233 ft | 387 kts | 66° |
| 2026-04-15 13:50 | 37.01511 | -119.53788 | 17069 ft | 394 kts | 66° |
| 2026-04-15 13:50 | 37.02549 | -119.50589 | 17903 ft | 400 kts | 66° |
| 2026-04-15 13:51 | 37.03606 | -119.47330 | 18673 ft | 406 kts | 66° |
| 2026-04-15 13:51 | 37.04673 | -119.44037 | 19406 ft | 410 kts | 66° |
| 2026-04-15 13:51 | 37.05739 | -119.40743 | 20194 ft | 413 kts | 66° |
| 2026-04-15 13:51 | 37.06819 | -119.37401 | 20962 ft | 417 kts | 66° |
| 2026-04-15 13:52 | 37.07911 | -119.34019 | 21694 ft | 421 kts | 66° |
| 2026-04-15 13:52 | 37.09018 | -119.30586 | 22423 ft | 426 kts | 66° |
| 2026-04-15 13:52 | 37.10135 | -119.27117 | 23139 ft | 430 kts | 66° |
| 2026-04-15 13:52 | 37.11257 | -119.23628 | 23809 ft | 434 kts | 66° |
| 2026-04-15 13:53 | 37.12387 | -119.20109 | 24417 ft | 437 kts | 66° |
| 2026-04-15 13:53 | 37.13527 | -119.16555 | 24984 ft | 441 kts | 66° |
| 2026-04-15 13:53 | 37.14285 | -119.14191 | 25352 ft | 444 kts | 66° |
| 2026-04-15 13:53 | 37.15818 | -119.09402 | 26046 ft | 449 kts | 66° |
| 2026-04-15 13:54 | 37.16984 | -119.05753 | 26578 ft | 453 kts | 66° |
| 2026-04-15 13:54 | 37.18162 | -119.02065 | 27104 ft | 457 kts | 66° |
| 2026-04-15 13:54 | 37.19345 | -118.98353 | 27609 ft | 460 kts | 66° |
| 2026-04-15 13:54 | 37.20138 | -118.95863 | 27933 ft | 463 kts | 66° |
| 2026-04-15 13:55 | 37.21335 | -118.92100 | 28432 ft | 466 kts | 66° |
| 2026-04-15 13:55 | 37.22540 | -118.88307 | 28923 ft | 469 kts | 67° |
| 2026-04-15 13:55 | 37.23755 | -118.84476 | 29041 ft | 474 kts | 67° |
| 2026-04-15 13:55 | 37.24974 | -118.80627 | 29047 ft | 472 kts | 67° |
| 2026-04-15 13:56 | 37.27316 | -118.73001 | 29057 ft | 468 kts | 71° |
| 2026-04-15 13:56 | 37.28048 | -118.69017 | 29063 ft | 470 kts | 82° |
| 2026-04-15 13:56 | 37.28397 | -118.64935 | 29084 ft | 471 kts | 84° |
| 2026-04-15 13:57 | 37.28943 | -118.56802 | 29087 ft | 470 kts | 84° |
| 2026-04-15 13:57 | 37.29501 | -118.48633 | 29098 ft | 469 kts | 84° |
| 2026-04-15 13:58 | 37.30098 | -118.40483 | 29091 ft | 468 kts | 84° |
| 2026-04-15 13:58 | 37.30706 | -118.32353 | 29108 ft | 467 kts | 84° |
| 2026-04-15 13:59 | 37.31310 | -118.24232 | 29105 ft | 467 kts | 84° |
| 2026-04-15 13:59 | 37.31906 | -118.16103 | 29077 ft | 467 kts | 84° |
| 2026-04-15 14:00 | 37.32496 | -118.07974 | 29042 ft | 467 kts | 84° |
| 2026-04-15 14:00 | 37.33076 | -117.99901 | 29049 ft | 466 kts | 84° |
| 2026-04-15 14:01 | 37.33940 | -117.87730 | 29043 ft | 466 kts | 84° |
| 2026-04-15 14:02 | 37.34509 | -117.79610 | 29046 ft | 466 kts | 84° |
| 2026-04-15 14:02 | 37.35074 | -117.71491 | 29048 ft | 466 kts | 84° |
| 2026-04-15 14:03 | 37.35632 | -117.63370 | 29044 ft | 466 kts | 84° |
| 2026-04-15 14:03 | 37.36185 | -117.55256 | 29050 ft | 466 kts | 84° |
| 2026-04-15 14:04 | 37.36732 | -117.47143 | 29062 ft | 466 kts | 84° |
| 2026-04-15 14:04 | 37.37275 | -117.39032 | 29060 ft | 465 kts | 84° |
| 2026-04-15 14:05 | 37.37722 | -117.30967 | 29052 ft | 466 kts | 92° |
| 2026-04-15 14:05 | 37.37152 | -117.26967 | 29074 ft | 466 kts | 109° |
| 2026-04-15 14:05 | 37.35789 | -117.23271 | 29071 ft | 466 kts | 124° |
| 2026-04-15 14:06 | 37.31563 | -117.17120 | 29081 ft | 464 kts | 134° |
| 2026-04-15 14:06 | 37.27156 | -117.11168 | 29065 ft | 465 kts | 133° |
| 2026-04-15 14:07 | 37.22831 | -117.05200 | 29067 ft | 465 kts | 133° |
| 2026-04-15 14:07 | 37.18503 | -116.99171 | 29071 ft | 465 kts | 133° |
| 2026-04-15 14:08 | 37.14168 | -116.93141 | 29063 ft | 465 kts | 133° |
| 2026-04-15 14:08 | 37.09744 | -116.87239 | 29055 ft | 464 kts | 139° |
| 2026-04-15 14:09 | 37.04511 | -116.82519 | 29047 ft | 463 kts | 147° |
| 2026-04-15 14:09 | 36.99151 | -116.78049 | 29050 ft | 463 kts | 147° |
| 2026-04-15 14:10 | 36.93806 | -116.73533 | 29033 ft | 463 kts | 147° |
| 2026-04-15 14:10 | 36.88512 | -116.69013 | 29025 ft | 463 kts | 147° |
| 2026-04-15 14:11 | 36.83180 | -116.64456 | 29021 ft | 463 kts | 147° |
| 2026-04-15 14:11 | 36.77858 | -116.59919 | 29022 ft | 463 kts | 147° |
| 2026-04-15 14:12 | 36.72533 | -116.55389 | 29022 ft | 463 kts | 147° |
| 2026-04-15 14:12 | 36.67195 | -116.50855 | 29009 ft | 464 kts | 146° |
| 2026-04-15 14:13 | 36.62419 | -116.45559 | 29018 ft | 465 kts | 131° |
| 2026-04-15 14:13 | 36.60291 | -116.42504 | 28429 ft | 470 kts | 131° |
| 2026-04-15 14:13 | 36.58187 | -116.39435 | 27841 ft | 463 kts | 130° |
| 2026-04-15 14:13 | 36.56098 | -116.36406 | 27154 ft | 457 kts | 131° |
| 2026-04-15 14:14 | 36.54027 | -116.33441 | 26477 ft | 451 kts | 131° |
| 2026-04-15 14:14 | 36.51968 | -116.30522 | 25804 ft | 447 kts | 131° |
| 2026-04-15 14:14 | 36.49924 | -116.27642 | 25151 ft | 442 kts | 131° |
| 2026-04-15 14:14 | 36.47897 | -116.24789 | 24549 ft | 438 kts | 132° |
| 2026-04-15 14:15 | 36.45917 | -116.22004 | 24378 ft | 422 kts | 132° |
| 2026-04-15 14:15 | 36.43988 | -116.19294 | 23842 ft | 418 kts | 132° |
| 2026-04-15 14:15 | 36.42070 | -116.16601 | 23224 ft | 415 kts | 132° |
| 2026-04-15 14:15 | 36.40159 | -116.13921 | 22588 ft | 412 kts | 132° |
| 2026-04-15 14:16 | 36.38269 | -116.11271 | 21999 ft | 408 kts | 132° |
| 2026-04-15 14:16 | 36.36400 | -116.08651 | 21403 ft | 404 kts | 132° |
| 2026-04-15 14:16 | 36.34569 | -116.06087 | 20856 ft | 400 kts | 132° |
| 2026-04-15 14:16 | 36.32731 | -116.03514 | 20290 ft | 397 kts | 131° |
| 2026-04-15 14:17 | 36.30905 | -116.00959 | 19746 ft | 393 kts | 131° |
| 2026-04-15 14:17 | 36.29102 | -115.98440 | 19393 ft | 385 kts | 131° |
| 2026-04-15 14:17 | 36.27359 | -115.96005 | 19229 ft | 371 kts | 131° |
| 2026-04-15 14:17 | 36.25667 | -115.93646 | 19076 ft | 359 kts | 131° |
| 2026-04-15 14:18 | 36.24063 | -115.91316 | 18787 ft | 352 kts | 128° |
| 2026-04-15 14:18 | 36.22560 | -115.88939 | 18479 ft | 347 kts | 127° |
| 2026-04-15 14:18 | 36.21102 | -115.86581 | 18096 ft | 344 kts | 127° |
| 2026-04-15 14:18 | 36.19653 | -115.84245 | 17714 ft | 340 kts | 127° |
| 2026-04-15 14:19 | 36.18213 | -115.81943 | 17371 ft | 335 kts | 127° |
| 2026-04-15 14:19 | 36.16802 | -115.79705 | 17056 ft | 331 kts | 128° |
| 2026-04-15 14:19 | 36.15387 | -115.77469 | 16746 ft | 330 kts | 128° |
| 2026-04-15 14:19 | 36.14011 | -115.75198 | 16436 ft | 331 kts | 122° |
| 2026-04-15 14:20 | 36.13020 | -115.72634 | 16149 ft | 331 kts | 111° |
| 2026-04-15 14:20 | 36.12204 | -115.69961 | 15835 ft | 332 kts | 109° |
| 2026-04-15 14:20 | 36.11413 | -115.67281 | 15518 ft | 332 kts | 109° |
| 2026-04-15 14:20 | 36.10618 | -115.64602 | 15211 ft | 331 kts | 110° |
| 2026-04-15 14:21 | 36.09815 | -115.61935 | 14901 ft | 329 kts | 110° |
| 2026-04-15 14:21 | 36.09026 | -115.59341 | 14588 ft | 324 kts | 110° |
| 2026-04-15 14:21 | 36.08233 | -115.56757 | 14297 ft | 319 kts | 110° |
| 2026-04-15 14:21 | 36.07445 | -115.54197 | 14004 ft | 318 kts | 111° |
| 2026-04-15 14:22 | 36.06657 | -115.51644 | 13695 ft | 317 kts | 111° |
| 2026-04-15 14:22 | 36.05872 | -115.49103 | 13354 ft | 316 kts | 111° |
| 2026-04-15 14:22 | 36.05089 | -115.46574 | 13043 ft | 312 kts | 111° |
| 2026-04-15 14:22 | 36.04316 | -115.44083 | 12740 ft | 309 kts | 111° |
| 2026-04-15 14:23 | 36.03547 | -115.41604 | 12466 ft | 307 kts | 111° |
| 2026-04-15 14:23 | 36.02784 | -115.39148 | 12191 ft | 305 kts | 111° |
| 2026-04-15 14:23 | 36.02026 | -115.36709 | 11899 ft | 303 kts | 111° |
| 2026-04-15 14:23 | 36.01469 | -115.34205 | 11599 ft | 302 kts | 96° |
| 2026-04-15 14:24 | 36.01324 | -115.31634 | 11341 ft | 301 kts | 93° |
| 2026-04-15 14:24 | 36.01235 | -115.29056 | 10972 ft | 297 kts | 93° |
| 2026-04-15 14:24 | 36.01146 | -115.26539 | 10581 ft | 290 kts | 93° |
| 2026-04-15 14:24 | 36.01047 | -115.24075 | 10152 ft | 285 kts | 94° |
| 2026-04-15 14:25 | 36.00939 | -115.21644 | 9732 ft | 280 kts | 94° |
| 2026-04-15 14:25 | 36.00827 | -115.19280 | 9482 ft | 273 kts | 94° |
| 2026-04-15 14:25 | 36.00713 | -115.16948 | 9222 ft | 272 kts | 94° |
| 2026-04-15 14:25 | 36.00596 | -115.14621 | 9051 ft | 269 kts | 94° |
| 2026-04-15 14:26 | 36.00481 | -115.12338 | 9017 ft | 272 kts | 95° |
| 2026-04-15 14:26 | 36.00362 | -115.09987 | 8934 ft | 277 kts | 95° |
| 2026-04-15 14:26 | 36.00240 | -115.07589 | 8658 ft | 281 kts | 95° |
| 2026-04-15 14:26 | 36.00117 | -115.05191 | 8387 ft | 278 kts | 95° |
| 2026-04-15 14:27 | 35.99997 | -115.02834 | 8128 ft | 273 kts | 95° |
| 2026-04-15 14:27 | 35.99897 | -115.00512 | 7814 ft | 269 kts | 92° |
| 2026-04-15 14:27 | 35.99878 | -114.98223 | 7502 ft | 262 kts | 91° |
| 2026-04-15 14:27 | 35.99873 | -114.96010 | 7180 ft | 253 kts | 91° |
| 2026-04-15 14:28 | 35.99932 | -114.93885 | 6859 ft | 244 kts | 81° |
| 2026-04-15 14:28 | 36.00647 | -114.92035 | 6543 ft | 238 kts | 50° |
| 2026-04-15 14:28 | 36.01890 | -114.90748 | 6235 ft | 230 kts | 33° |
| 2026-04-15 14:28 | 36.03339 | -114.90049 | 5908 ft | 222 kts | 2° |
| 2026-04-15 14:29 | 36.04813 | -114.90349 | 5654 ft | 211 kts | 336° |
| 2026-04-15 14:29 | 36.06062 | -114.91193 | 5410 ft | 203 kts | 326° |
| 2026-04-15 14:29 | 36.07048 | -114.92387 | 5200 ft | 198 kts | 291° |
| 2026-04-15 14:29 | 36.07294 | -114.94022 | 5016 ft | 194 kts | 274° |
| 2026-04-15 14:30 | 36.07380 | -114.95689 | 4753 ft | 193 kts | 269° |
| 2026-04-15 14:30 | 36.07394 | -114.97336 | 4505 ft | 191 kts | 268° |
| 2026-04-15 14:30 | 36.07392 | -114.98910 | 4242 ft | 178 kts | 268° |
| 2026-04-15 14:30 | 36.07388 | -115.00370 | 4067 ft | 160 kts | 267° |
| 2026-04-15 14:31 | 36.07385 | -115.01693 | 3846 ft | 147 kts | 268° |
| 2026-04-15 14:31 | 36.07382 | -115.02913 | 3647 ft | 138 kts | 268° |
| 2026-04-15 14:31 | 36.07379 | -115.04088 | 3490 ft | 137 kts | 268° |
| 2026-04-15 14:31 | 36.07376 | -115.05281 | 3302 ft | 140 kts | 269° |
| 2026-04-15 14:32 | 36.07374 | -115.06478 | 3107 ft | 139 kts | 269° |
| 2026-04-15 14:32 | 36.07372 | -115.07672 | 2920 ft | 139 kts | 269° |
| 2026-04-15 14:32 | 36.07371 | -115.08872 | 2722 ft | 139 kts | 270° |
| 2026-04-15 14:32 | 36.07369 | -115.10064 | 2527 ft | 139 kts | 270° |
| 2026-04-15 14:33 | 36.07367 | -115.11243 | 2343 ft | 138 kts | 270° |
| 2026-04-15 14:33 | 36.07368 | -115.12432 | 2153 ft | 137 kts | 270° |
| 2026-04-15 14:33 | 36.07368 | -115.13575 | 2072 ft | 113 kts | 269° |
| 2026-04-15 14:33 | 36.07367 | -115.14029 | 2082 ft | 33 kts | 269° |
| 2026-04-15 14:34 | 36.07375 | -115.14284 | 2087 ft | 30 kts | 277° |
| 2026-04-15 14:34 | 36.07437 | -115.14510 | 2092 ft | 25 kts | 298° |
| 2026-04-15 14:34 | 36.07516 | -115.14631 | 2097 ft | 15 kts | 338° |
| 2026-04-15 14:34 | 36.07615 | -115.14652 | 2101 ft | 14 kts | 355° |
| 2026-04-15 14:35 | 36.07726 | -115.14652 | 2098 ft | 14 kts | 4° |
| 2026-04-15 14:35 | 36.07767 | -115.14536 | 2096 ft | 17 kts | 92° |
| 2026-04-15 14:35 | 36.07825 | -115.14448 | 2095 ft | 16 kts | 14° |
| 2026-04-15 14:35 | 36.07917 | -115.14437 | 2095 ft | 13 kts | 360° |
| 2026-04-15 14:36 | 36.07998 | -115.14457 | 2095 ft | 13 kts | 329° |
| 2026-04-15 14:36 | 36.08071 | -115.14488 | 2096 ft | 12 kts | 343° |
| 2026-04-15 14:36 | 36.08098 | -115.14552 | 2096 ft | 7 kts | 256° |
| 2026-04-15 14:36 | 36.08090 | -115.14589 | 2096 ft | 2 kts | 253° |
| 2026-04-15 14:37 | 36.08089 | -115.14595 | 2096 ft | 0 kts | 253° |